sensor_id;sensor_type;location;lat;lon;timestamp;pressure;altitude;pressure_sealevel;temperature;humidity
70302;BME280;57706;56.326;43.882;2023-03-26T00:01:55;99444.88;;;7.93;96.58
70302;BME280;57706;56.326;43.882;2023-03-26T00:04:23;99446.66;;;7.93;96.87
70302;BME280;57706;56.326;43.882;2023-03-26T00:06:50;99445.53;;;7.87;96.88
70302;BME280;57706;56.326;43.882;2023-03-26T00:09:16;99450.94;;;7.85;96.90
70302;BME280;57706;56.326;43.882;2023-03-26T00:11:43;99449.75;;;7.96;97.65
70302;BME280;57706;56.326;43.882;2023-03-26T00:14:11;99455.34;;;7.93;96.90
70302;BME280;57706;56.326;43.882;2023-03-26T00:16:39;99455.59;;;8.15;97.30
70302;BME280;57706;56.326;43.882;2023-03-26T00:19:08;99457.56;;;8.13;96.78
70302;BME280;57706;56.326;43.882;2023-03-26T00:21:34;99457.09;;;8.09;96.73
70302;BME280;57706;56.326;43.882;2023-03-26T00:24:05;99462.16;;;8.11;96.25
70302;BME280;57706;56.326;43.882;2023-03-26T00:26:33;99459.81;;;8.16;96.11
70302;BME280;57706;56.326;43.882;2023-03-26T00:29:00;99470.47;;;8.23;95.42
70302;BME280;57706;56.326;43.882;2023-03-26T00:31:27;99464.69;;;8.36;94.06
70302;BME280;57706;56.326;43.882;2023-03-26T00:33:53;99470.66;;;8.13;93.97
70302;BME280;57706;56.326;43.882;2023-03-26T00:36:21;99470.00;;;8.11;94.88
70302;BME280;57706;56.326;43.882;2023-03-26T00:38:48;99470.94;;;8.26;95.60
70302;BME280;57706;56.326;43.882;2023-03-26T00:41:16;99467.66;;;8.24;94.99
70302;BME280;57706;56.326;43.882;2023-03-26T00:43:49;99465.72;;;8.18;94.40
70302;BME280;57706;56.326;43.882;2023-03-26T00:46:16;99465.44;;;8.05;94.53
70302;BME280;57706;56.326;43.882;2023-03-26T00:48:43;99461.50;;;8.01;95.36
70302;BME280;57706;56.326;43.882;2023-03-26T00:51:09;99471.94;;;8.17;95.92
70302;BME280;57706;56.326;43.882;2023-03-26T00:53:36;99474.72;;;8.16;95.48
70302;BME280;57706;56.326;43.882;2023-03-26T00:56:04;99474.25;;;8.12;94.90
70302;BME280;57706;56.326;43.882;2023-03-26T00:58:31;99468.06;;;8.05;94.99
70302;BME280;57706;56.326;43.882;2023-03-26T01:01:00;99478.00;;;8.18;95.17
70302;BME280;57706;56.326;43.882;2023-03-26T01:03:30;99474.19;;;8.29;94.05
70302;BME280;57706;56.326;43.882;2023-03-26T01:06:05;99470.59;;;8.30;93.53
70302;BME280;57706;56.326;43.882;2023-03-26T01:08:43;99473.09;;;8.15;93.49
70302;BME280;57706;56.326;43.882;2023-03-26T01:11:12;99484.34;;;8.23;93.71
70302;BME280;57706;56.326;43.882;2023-03-26T01:13:47;99473.56;;;8.26;93.15
70302;BME280;57706;56.326;43.882;2023-03-26T01:16:23;99478.63;;;8.20;93.83
70302;BME280;57706;56.326;43.882;2023-03-26T01:18:50;99480.97;;;8.15;94.08
70302;BME280;57706;56.326;43.882;2023-03-26T01:21:21;99472.78;;;8.09;93.44
70302;BME280;57706;56.326;43.882;2023-03-26T01:29:08;99488.06;;;8.29;94.09
70302;BME280;57706;56.326;43.882;2023-03-26T01:31:51;99496.41;;;8.33;93.22
70302;BME280;57706;56.326;43.882;2023-03-26T01:39:42;99493.50;;;8.27;92.94
70302;BME280;57706;56.326;43.882;2023-03-26T01:42:29;99495.13;;;8.29;92.56
70302;BME280;57706;56.326;43.882;2023-03-26T01:45:09;99503.75;;;8.37;92.64
70302;BME280;57706;56.326;43.882;2023-03-26T01:47:37;99496.75;;;8.30;92.78
70302;BME280;57706;56.326;43.882;2023-03-26T01:50:04;99496.16;;;8.19;92.38
70302;BME280;57706;56.326;43.882;2023-03-26T01:52:30;99495.44;;;8.34;92.97
70302;BME280;57706;56.326;43.882;2023-03-26T01:54:56;99492.19;;;8.23;92.28
70302;BME280;57706;56.326;43.882;2023-03-26T02:00:24;99501.16;;;8.29;92.64
70302;BME280;57706;56.326;43.882;2023-03-26T02:05:51;99506.19;;;8.47;91.80
70302;BME280;57706;56.326;43.882;2023-03-26T02:08:32;99507.66;;;8.50;91.60
70302;BME280;57706;56.326;43.882;2023-03-26T02:11:05;99511.84;;;8.27;91.72
70302;BME280;57706;56.326;43.882;2023-03-26T02:13:37;99515.75;;;8.23;92.52
70302;BME280;57706;56.326;43.882;2023-03-26T02:16:05;99513.75;;;8.34;91.78
70302;BME280;57706;56.326;43.882;2023-03-26T02:18:31;99515.47;;;8.18;91.80
70302;BME280;57706;56.326;43.882;2023-03-26T02:21:14;99517.69;;;8.38;91.38
70302;BME280;57706;56.326;43.882;2023-03-26T02:23:47;99513.88;;;8.57;90.54
70302;BME280;57706;56.326;43.882;2023-03-26T02:26:16;99519.00;;;8.34;89.78
70302;BME280;57706;56.326;43.882;2023-03-26T02:28:56;99522.66;;;8.16;91.60
70302;BME280;57706;56.326;43.882;2023-03-26T02:31:23;99521.97;;;8.22;91.38
70302;BME280;57706;56.326;43.882;2023-03-26T02:33:53;99519.94;;;8.41;91.83
70302;BME280;57706;56.326;43.882;2023-03-26T02:36:21;99523.06;;;8.36;90.55
70302;BME280;57706;56.326;43.882;2023-03-26T02:38:54;99526.19;;;8.32;91.61
70302;BME280;57706;56.326;43.882;2023-03-26T02:41:22;99528.81;;;8.32;91.37
70302;BME280;57706;56.326;43.882;2023-03-26T02:44:08;99528.22;;;8.13;92.05
70302;BME280;57706;56.326;43.882;2023-03-26T02:47:07;99529.06;;;8.05;91.82
70302;BME280;57706;56.326;43.882;2023-03-26T02:49:44;99531.19;;;8.10;92.28
70302;BME280;57706;56.326;43.882;2023-03-26T02:52:16;99539.03;;;8.10;92.44
70302;BME280;57706;56.326;43.882;2023-03-26T02:54:44;99540.00;;;8.01;92.41
70302;BME280;57706;56.326;43.882;2023-03-26T02:57:15;99536.72;;;8.15;91.80
70302;BME280;57706;56.326;43.882;2023-03-26T02:59:50;99530.38;;;8.01;91.50
70302;BME280;57706;56.326;43.882;2023-03-26T03:02:37;99540.50;;;8.04;91.43
70302;BME280;57706;56.326;43.882;2023-03-26T03:05:21;99543.97;;;7.96;92.14
70302;BME280;57706;56.326;43.882;2023-03-26T03:07:57;99542.00;;;7.98;92.66
70302;BME280;57706;56.326;43.882;2023-03-26T03:10:25;99538.38;;;8.08;92.10
70302;BME280;57706;56.326;43.882;2023-03-26T03:13:09;99538.31;;;8.24;91.30
70302;BME280;57706;56.326;43.882;2023-03-26T03:15:35;99538.00;;;8.27;91.26
70302;BME280;57706;56.326;43.882;2023-03-26T03:18:01;99537.06;;;8.12;91.35
70302;BME280;57706;56.326;43.882;2023-03-26T03:20:30;99543.88;;;8.30;90.59
70302;BME280;57706;56.326;43.882;2023-03-26T03:22:59;99541.31;;;8.13;91.11
70302;BME280;57706;56.326;43.882;2023-03-26T03:25:26;99544.56;;;8.23;91.35
70302;BME280;57706;56.326;43.882;2023-03-26T03:27:52;99536.34;;;8.35;90.36
70302;BME280;57706;56.326;43.882;2023-03-26T03:30:18;99542.41;;;8.35;90.27
70302;BME280;57706;56.326;43.882;2023-03-26T03:32:45;99538.31;;;8.33;89.98
70302;BME280;57706;56.326;43.882;2023-03-26T03:35:13;99545.63;;;8.46;89.84
70302;BME280;57706;56.326;43.882;2023-03-26T03:37:41;99539.06;;;8.58;89.36
70302;BME280;57706;56.326;43.882;2023-03-26T03:40:08;99536.00;;;8.38;89.70
70302;BME280;57706;56.326;43.882;2023-03-26T03:42:36;99535.66;;;8.41;89.54
70302;BME280;57706;56.326;43.882;2023-03-26T03:45:04;99531.78;;;8.29;90.14
70302;BME280;57706;56.326;43.882;2023-03-26T03:47:48;99532.94;;;8.26;89.85
70302;BME280;57706;56.326;43.882;2023-03-26T03:50:18;99530.16;;;8.27;90.61
70302;BME280;57706;56.326;43.882;2023-03-26T03:52:58;99534.41;;;8.29;90.05
70302;BME280;57706;56.326;43.882;2023-03-26T03:55:26;99521.91;;;8.47;89.50
70302;BME280;57706;56.326;43.882;2023-03-26T03:57:53;99528.31;;;8.36;89.96
70302;BME280;57706;56.326;43.882;2023-03-26T04:00:22;99523.53;;;8.57;90.32
70302;BME280;57706;56.326;43.882;2023-03-26T04:03:04;99525.44;;;8.71;90.04
70302;BME280;57706;56.326;43.882;2023-03-26T04:05:32;99525.47;;;8.94;88.33
70302;BME280;57706;56.326;43.882;2023-03-26T04:07:58;99528.38;;;9.00;88.30
70302;BME280;57706;56.326;43.882;2023-03-26T04:10:25;99516.75;;;9.02;87.65
70302;BME280;57706;56.326;43.882;2023-03-26T04:13:12;99528.59;;;8.90;87.68
70302;BME280;57706;56.326;43.882;2023-03-26T04:15:53;99524.50;;;8.87;88.62
70302;BME280;57706;56.326;43.882;2023-03-26T04:18:19;99520.22;;;8.94;88.48
70302;BME280;57706;56.326;43.882;2023-03-26T04:20:45;99523.94;;;9.00;87.80
70302;BME280;57706;56.326;43.882;2023-03-26T04:23:16;99523.34;;;8.90;87.64
70302;BME280;57706;56.326;43.882;2023-03-26T04:25:48;99538.28;;;8.89;88.78
70302;BME280;57706;56.326;43.882;2023-03-26T04:31:14;99531.03;;;8.68;89.25
70302;BME280;57706;56.326;43.882;2023-03-26T04:33:46;99535.06;;;8.71;89.76
70302;BME280;57706;56.326;43.882;2023-03-26T04:36:15;99532.28;;;8.72;89.87
70302;BME280;57706;56.326;43.882;2023-03-26T04:38:45;99534.56;;;8.75;88.65
70302;BME280;57706;56.326;43.882;2023-03-26T04:41:18;99539.22;;;8.57;89.86
70302;BME280;57706;56.326;43.882;2023-03-26T04:44:04;99535.13;;;8.94;88.20
70302;BME280;57706;56.326;43.882;2023-03-26T04:46:40;99535.72;;;9.04;87.79
70302;BME280;57706;56.326;43.882;2023-03-26T04:49:30;99540.47;;;8.77;88.43
70302;BME280;57706;56.326;43.882;2023-03-26T04:51:56;99545.63;;;8.94;88.13
70302;BME280;57706;56.326;43.882;2023-03-26T04:54:55;99548.72;;;8.49;89.41
70302;BME280;57706;56.326;43.882;2023-03-26T04:57:33;99542.22;;;8.85;88.15
70302;BME280;57706;56.326;43.882;2023-03-26T05:00:07;99540.19;;;8.64;89.04
70302;BME280;57706;56.326;43.882;2023-03-26T05:02:48;99539.81;;;9.07;87.35
70302;BME280;57706;56.326;43.882;2023-03-26T05:05:15;99542.81;;;8.95;87.05
70302;BME280;57706;56.326;43.882;2023-03-26T05:07:42;99528.38;;;9.23;86.71
70302;BME280;57706;56.326;43.882;2023-03-26T05:10:13;99529.66;;;9.50;84.38
70302;BME280;57706;56.326;43.882;2023-03-26T05:12:46;99525.78;;;9.46;84.39
70302;BME280;57706;56.326;43.882;2023-03-26T05:15:26;99531.06;;;9.61;84.30
70302;BME280;57706;56.326;43.882;2023-03-26T05:17:52;99520.00;;;9.51;84.70
70302;BME280;57706;56.326;43.882;2023-03-26T05:20:28;99510.53;;;9.42;84.80
70302;BME280;57706;56.326;43.882;2023-03-26T05:22:55;99523.81;;;9.63;84.08
70302;BME280;57706;56.326;43.882;2023-03-26T05:25:29;99514.91;;;9.49;84.38
70302;BME280;57706;56.326;43.882;2023-03-26T05:27:57;99527.41;;;9.24;85.17
70302;BME280;57706;56.326;43.882;2023-03-26T05:30:28;99518.09;;;9.21;86.02
70302;BME280;57706;56.326;43.882;2023-03-26T05:32:58;99525.50;;;9.18;86.59
70302;BME280;57706;56.326;43.882;2023-03-26T05:35:29;99521.88;;;9.19;86.42
70302;BME280;57706;56.326;43.882;2023-03-26T05:37:56;99523.16;;;9.23;86.33
70302;BME280;57706;56.326;43.882;2023-03-26T05:40:23;99511.72;;;9.16;86.44
70302;BME280;57706;56.326;43.882;2023-03-26T05:42:58;99527.34;;;9.32;85.73
70302;BME280;57706;56.326;43.882;2023-03-26T05:45:33;99521.44;;;9.54;85.70
70302;BME280;57706;56.326;43.882;2023-03-26T05:48:09;99516.09;;;9.47;85.22
70302;BME280;57706;56.326;43.882;2023-03-26T05:50:35;99516.25;;;9.45;85.39
70302;BME280;57706;56.326;43.882;2023-03-26T05:53:01;99529.91;;;9.41;85.20
70302;BME280;57706;56.326;43.882;2023-03-26T05:55:47;99519.63;;;9.07;86.92
70302;BME280;57706;56.326;43.882;2023-03-26T05:58:40;99525.50;;;9.18;87.26
70302;BME280;57706;56.326;43.882;2023-03-26T06:01:25;99513.59;;;9.30;85.96
70302;BME280;57706;56.326;43.882;2023-03-26T06:04:20;99513.28;;;9.25;86.80
70302;BME280;57706;56.326;43.882;2023-03-26T06:06:59;99510.47;;;9.12;87.34
70302;BME280;57706;56.326;43.882;2023-03-26T06:09:26;99512.72;;;9.15;87.49
70302;BME280;57706;56.326;43.882;2023-03-26T06:11:54;99515.41;;;9.06;88.93
70302;BME280;57706;56.326;43.882;2023-03-26T06:14:19;99507.06;;;9.49;87.06
70302;BME280;57706;56.326;43.882;2023-03-26T06:17:06;99501.88;;;8.63;91.44
70302;BME280;57706;56.326;43.882;2023-03-26T06:19:52;99513.06;;;8.88;92.34
70302;BME280;57706;56.326;43.882;2023-03-26T06:22:26;99503.56;;;9.34;89.16
70302;BME280;57706;56.326;43.882;2023-03-26T06:25:15;99502.19;;;9.46;87.67
70302;BME280;57706;56.326;43.882;2023-03-26T06:27:54;99513.34;;;9.17;89.27
70302;BME280;57706;56.326;43.882;2023-03-26T06:30:38;99518.59;;;9.17;88.86
70302;BME280;57706;56.326;43.882;2023-03-26T06:33:15;99513.03;;;9.20;88.71
70302;BME280;57706;56.326;43.882;2023-03-26T06:35:45;99515.13;;;9.25;88.15
70302;BME280;57706;56.326;43.882;2023-03-26T06:38:13;99516.97;;;9.16;89.00
70302;BME280;57706;56.326;43.882;2023-03-26T06:40:39;99514.28;;;9.24;89.07
70302;BME280;57706;56.326;43.882;2023-03-26T06:43:25;99508.94;;;8.94;90.87
70302;BME280;57706;56.326;43.882;2023-03-26T06:46:09;99513.03;;;9.20;89.26
70302;BME280;57706;56.326;43.882;2023-03-26T06:49:14;99501.59;;;8.89;89.97
70302;BME280;57706;56.326;43.882;2023-03-26T06:51:39;99504.78;;;9.23;89.96
70302;BME280;57706;56.326;43.882;2023-03-26T06:54:38;99508.34;;;9.30;88.41
70302;BME280;57706;56.326;43.882;2023-03-26T06:57:12;99499.91;;;9.20;89.00
70302;BME280;57706;56.326;43.882;2023-03-26T06:59:58;99506.47;;;9.16;88.78
70302;BME280;57706;56.326;43.882;2023-03-26T07:02:43;99504.16;;;9.21;89.53
70302;BME280;57706;56.326;43.882;2023-03-26T07:05:28;99497.97;;;9.14;89.96
70302;BME280;57706;56.326;43.882;2023-03-26T07:08:12;99497.09;;;9.45;87.34
70302;BME280;57706;56.326;43.882;2023-03-26T07:11:01;99489.88;;;9.23;88.52
70302;BME280;57706;56.326;43.882;2023-03-26T07:13:33;99487.06;;;9.25;89.30
70302;BME280;57706;56.326;43.882;2023-03-26T07:16:17;99475.09;;;9.31;89.73
70302;BME280;57706;56.326;43.882;2023-03-26T07:19:01;99476.53;;;9.10;89.35
70302;BME280;57706;56.326;43.882;2023-03-26T07:21:32;99472.06;;;9.57;88.11
70302;BME280;57706;56.326;43.882;2023-03-26T07:24:01;99470.47;;;9.86;85.72
70302;BME280;57706;56.326;43.882;2023-03-26T07:29:44;99477.34;;;9.87;84.83
70302;BME280;57706;56.326;43.882;2023-03-26T07:32:58;99470.81;;;9.83;85.43
70302;BME280;57706;56.326;43.882;2023-03-26T07:35:49;99470.47;;;9.86;85.26
70302;BME280;57706;56.326;43.882;2023-03-26T07:39:03;99482.00;;;9.62;85.73
70302;BME280;57706;56.326;43.882;2023-03-26T07:47:46;99470.00;;;9.68;86.35
70302;BME280;57706;56.326;43.882;2023-03-26T07:50:46;99470.28;;;9.73;86.20
70302;BME280;57706;56.326;43.882;2023-03-26T07:53:38;99463.91;;;9.52;86.91
70302;BME280;57706;56.326;43.882;2023-03-26T07:56:53;99465.31;;;9.63;88.41
70302;BME280;57706;56.326;43.882;2023-03-26T07:59:51;99466.31;;;9.77;86.78
70302;BME280;57706;56.326;43.882;2023-03-26T08:08:58;99446.09;;;9.62;87.92
70302;BME280;57706;56.326;43.882;2023-03-26T08:12:26;99452.78;;;9.50;88.46
70302;BME280;57706;56.326;43.882;2023-03-26T08:20:48;99441.50;;;9.64;87.21
70302;BME280;57706;56.326;43.882;2023-03-26T08:26:09;99434.44;;;9.80;85.71
70302;BME280;57706;56.326;43.882;2023-03-26T08:31:14;99429.19;;;9.80;87.01
70302;BME280;57706;56.326;43.882;2023-03-26T08:33:42;99429.81;;;10.12;85.62
70302;BME280;57706;56.326;43.882;2023-03-26T08:36:08;99428.22;;;10.33;84.10
70302;BME280;57706;56.326;43.882;2023-03-26T08:38:34;99425.88;;;10.38;84.74
70302;BME280;57706;56.326;43.882;2023-03-26T09:02:14;99413.84;;;11.31;79.97
70302;BME280;57706;56.326;43.882;2023-03-26T09:13:49;99424.94;;;10.83;78.94
70302;BME280;57706;56.326;43.882;2023-03-26T09:19:14;99423.22;;;9.86;83.70
70302;BME280;57706;56.326;43.882;2023-03-26T09:50:02;99403.06;;;9.72;87.23
70302;BME280;57706;56.326;43.882;2023-03-26T10:04:30;99372.88;;;10.71;83.21
70302;BME280;57706;56.326;43.882;2023-03-26T10:12:51;99371.28;;;10.70;83.33
70302;BME280;57706;56.326;43.882;2023-03-26T10:15:34;99366.38;;;11.18;81.93
70302;BME280;57706;56.326;43.882;2023-03-26T10:18:11;99355.44;;;11.14;81.59
70302;BME280;57706;56.326;43.882;2023-03-26T10:20:54;99363.00;;;10.95;82.05
70302;BME280;57706;56.326;43.882;2023-03-26T10:29:13;99350.09;;;11.00;82.54
70302;BME280;57706;56.326;43.882;2023-03-26T10:40:11;99342.84;;;10.37;85.59
70302;BME280;57706;56.326;43.882;2023-03-26T10:45:24;99351.31;;;10.17;85.65
70302;BME280;57706;56.326;43.882;2023-03-26T10:50:51;99345.56;;;10.29;85.44
70302;BME280;57706;56.326;43.882;2023-03-26T10:53:39;99346.00;;;10.48;84.59
70302;BME280;57706;56.326;43.882;2023-03-26T10:58:53;99333.53;;;11.07;84.13
70302;BME280;57706;56.326;43.882;2023-03-26T11:10:02;99338.69;;;11.57;81.67
70302;BME280;57706;56.326;43.882;2023-03-26T11:13:09;99323.53;;;11.24;82.14
70302;BME280;57706;56.326;43.882;2023-03-26T11:15:35;99322.50;;;11.53;81.25
70302;BME280;57706;56.326;43.882;2023-03-26T11:18:15;99333.34;;;11.37;80.25
70302;BME280;57706;56.326;43.882;2023-03-26T11:20:52;99329.97;;;11.98;78.64
70302;BME280;57706;56.326;43.882;2023-03-26T11:29:09;99325.66;;;12.93;74.94
70302;BME280;57706;56.326;43.882;2023-03-26T11:34:08;99324.72;;;13.67;71.73
70302;BME280;57706;56.326;43.882;2023-03-26T11:36:39;99316.72;;;14.26;69.70
70302;BME280;57706;56.326;43.882;2023-03-26T11:39:11;99312.31;;;15.40;65.07
70302;BME280;57706;56.326;43.882;2023-03-26T11:41:39;99310.28;;;14.98;64.69
70302;BME280;57706;56.326;43.882;2023-03-26T11:44:26;99313.66;;;14.55;66.50
70302;BME280;57706;56.326;43.882;2023-03-26T11:46:59;99305.69;;;14.29;68.37
70302;BME280;57706;56.326;43.882;2023-03-26T11:49:28;99304.59;;;13.73;69.17
70302;BME280;57706;56.326;43.882;2023-03-26T11:51:55;99302.63;;;13.55;70.69
70302;BME280;57706;56.326;43.882;2023-03-26T11:54:21;99309.38;;;13.24;71.94
70302;BME280;57706;56.326;43.882;2023-03-26T12:02:22;99302.69;;;13.87;68.89
70302;BME280;57706;56.326;43.882;2023-03-26T12:04:44;99307.47;;;14.03;68.18
70302;BME280;57706;56.326;43.882;2023-03-26T12:10:37;99299.75;;;13.63;70.06
70302;BME280;57706;56.326;43.882;2023-03-26T12:16:15;99289.50;;;15.21;64.16
70302;BME280;57706;56.326;43.882;2023-03-26T12:18:43;99289.78;;;15.68;62.47
70302;BME280;57706;56.326;43.882;2023-03-26T12:21:16;99285.34;;;14.88;64.47
70302;BME280;57706;56.326;43.882;2023-03-26T12:23:50;99275.28;;;14.71;64.61
70302;BME280;57706;56.326;43.882;2023-03-26T12:26:42;99273.22;;;14.22;66.87
70302;BME280;57706;56.326;43.882;2023-03-26T12:29:17;99284.88;;;13.75;68.75
70302;BME280;57706;56.326;43.882;2023-03-26T12:32:03;99267.16;;;14.22;67.59
70302;BME280;57706;56.326;43.882;2023-03-26T12:34:32;99272.00;;;14.25;66.90
70302;BME280;57706;56.326;43.882;2023-03-26T12:37:04;99260.31;;;14.07;67.49
70302;BME280;57706;56.326;43.882;2023-03-26T12:39:38;99255.03;;;14.07;67.36
70302;BME280;57706;56.326;43.882;2023-03-26T12:42:23;99257.16;;;13.92;67.94
70302;BME280;57706;56.326;43.882;2023-03-26T12:44:51;99246.78;;;13.90;68.13
70302;BME280;57706;56.326;43.882;2023-03-26T12:47:20;99253.00;;;13.70;69.38
70302;BME280;57706;56.326;43.882;2023-03-26T12:49:48;99244.47;;;13.16;71.17
70302;BME280;57706;56.326;43.882;2023-03-26T12:53:14;99247.66;;;13.31;70.80
70302;BME280;57706;56.326;43.882;2023-03-26T12:55:46;99235.16;;;13.06;71.40
70302;BME280;57706;56.326;43.882;2023-03-26T12:58:34;99241.00;;;13.15;71.48
70302;BME280;57706;56.326;43.882;2023-03-26T13:01:10;99230.34;;;12.76;72.81
70302;BME280;57706;56.326;43.882;2023-03-26T13:06:40;99219.34;;;13.06;71.38
70302;BME280;57706;56.326;43.882;2023-03-26T13:17:35;99221.56;;;13.62;68.63
70302;BME280;57706;56.326;43.882;2023-03-26T13:20:06;99213.16;;;14.11;66.62
70302;BME280;57706;56.326;43.882;2023-03-26T13:23:03;99214.66;;;14.00;67.27
70302;BME280;57706;56.326;43.882;2023-03-26T13:36:59;99188.34;;;13.41;68.34
70302;BME280;57706;56.326;43.882;2023-03-26T13:39:11;99196.41;;;13.59;67.44
70302;BME280;57706;56.326;43.882;2023-03-26T13:44:32;99195.03;;;13.50;67.50
70302;BME280;57706;56.326;43.882;2023-03-26T13:47:07;99190.72;;;13.56;67.35
70302;BME280;57706;56.326;43.882;2023-03-26T13:50:05;99186.63;;;13.67;66.92
70302;BME280;57706;56.326;43.882;2023-03-26T13:52:42;99188.47;;;13.66;66.79
70302;BME280;57706;56.326;43.882;2023-03-26T13:58:10;99182.16;;;13.67;66.90
70302;BME280;57706;56.326;43.882;2023-03-26T14:00:45;99177.72;;;13.61;66.54
70302;BME280;57706;56.326;43.882;2023-03-26T14:03:30;99181.25;;;13.80;65.71
70302;BME280;57706;56.326;43.882;2023-03-26T14:06:04;99174.81;;;14.01;65.33
70302;BME280;57706;56.326;43.882;2023-03-26T14:08:32;99176.38;;;13.77;65.86
70302;BME280;57706;56.326;43.882;2023-03-26T14:11:09;99174.81;;;13.69;66.62
70302;BME280;57706;56.326;43.882;2023-03-26T14:13:46;99170.31;;;13.76;66.75
70302;BME280;57706;56.326;43.882;2023-03-26T14:16:33;99165.50;;;13.67;66.88
70302;BME280;57706;56.326;43.882;2023-03-26T14:35:35;99157.09;;;12.92;68.84
70302;BME280;57706;56.326;43.882;2023-03-26T14:41:32;99150.53;;;12.35;71.46
70302;BME280;57706;56.326;43.882;2023-03-26T14:44:25;99150.16;;;12.25;71.94
70302;BME280;57706;56.326;43.882;2023-03-26T14:55:16;99149.53;;;12.09;72.33
70302;BME280;57706;56.326;43.882;2023-03-26T15:11:48;99120.91;;;11.59;73.88
70302;BME280;57706;56.326;43.882;2023-03-26T15:23:27;99128.16;;;11.37;74.10
70302;BME280;57706;56.326;43.882;2023-03-26T15:35:37;99130.91;;;11.15;74.24
70302;BME280;57706;56.326;43.882;2023-03-26T15:40:55;99124.50;;;11.31;73.39
70302;BME280;57706;56.326;43.882;2023-03-26T15:47:00;99117.22;;;11.26;73.23
70302;BME280;57706;56.326;43.882;2023-03-26T15:49:42;99112.13;;;11.25;73.03
70302;BME280;57706;56.326;43.882;2023-03-26T15:52:30;99121.63;;;11.26;72.92
70302;BME280;57706;56.326;43.882;2023-03-26T16:04:03;99122.09;;;11.43;72.34
70302;BME280;57706;56.326;43.882;2023-03-26T16:09:18;99119.97;;;11.05;73.59
70302;BME280;57706;56.326;43.882;2023-03-26T16:12:17;99121.38;;;11.00;74.06
70302;BME280;57706;56.326;43.882;2023-03-26T16:18:14;99113.63;;;11.54;71.78
70302;BME280;57706;56.326;43.882;2023-03-26T16:28:36;99124.78;;;10.94;73.95
70302;BME280;57706;56.326;43.882;2023-03-26T16:31:31;99115.47;;;10.98;73.81
70302;BME280;57706;56.326;43.882;2023-03-26T16:36:37;99108.72;;;11.38;72.04
70302;BME280;57706;56.326;43.882;2023-03-26T16:44:23;99097.38;;;11.31;72.44
70302;BME280;57706;56.326;43.882;2023-03-26T16:49:47;99104.06;;;11.26;72.45
70302;BME280;57706;56.326;43.882;2023-03-26T16:58:13;99101.81;;;11.23;71.92
70302;BME280;57706;56.326;43.882;2023-03-26T17:03:37;99100.59;;;11.19;72.17
70302;BME280;57706;56.326;43.882;2023-03-26T17:12:07;99103.00;;;11.14;72.04
70302;BME280;57706;56.326;43.882;2023-03-26T17:14:59;99106.66;;;11.20;71.93
70302;BME280;57706;56.326;43.882;2023-03-26T17:20:04;99104.66;;;11.22;71.43
70302;BME280;57706;56.326;43.882;2023-03-26T17:23:49;99098.50;;;11.08;71.87
70302;BME280;57706;56.326;43.882;2023-03-26T17:25:55;99102.97;;;11.00;72.14
70302;BME280;57706;56.326;43.882;2023-03-26T17:28:41;99107.66;;;11.19;71.52
70302;BME280;57706;56.326;43.882;2023-03-26T17:33:48;99086.78;;;10.97;72.10
70302;BME280;57706;56.326;43.882;2023-03-26T17:36:27;99097.28;;;10.97;72.10
70302;BME280;57706;56.326;43.882;2023-03-26T17:39:01;99092.03;;;11.04;71.88
70302;BME280;57706;56.326;43.882;2023-03-26T17:41:51;99093.22;;;10.87;72.22
70302;BME280;57706;56.326;43.882;2023-03-26T17:44:34;99085.50;;;10.79;72.50
70302;BME280;57706;56.326;43.882;2023-03-26T17:47:04;99094.09;;;10.66;73.43
70302;BME280;57706;56.326;43.882;2023-03-26T17:49:32;99093.81;;;10.90;72.10
70302;BME280;57706;56.326;43.882;2023-03-26T17:52:04;99099.25;;;10.88;71.92
70302;BME280;57706;56.326;43.882;2023-03-26T17:54:44;99098.84;;;10.84;71.76
70302;BME280;57706;56.326;43.882;2023-03-26T17:59:51;99107.41;;;10.58;72.59
70302;BME280;57706;56.326;43.882;2023-03-26T18:02:34;99092.69;;;10.64;72.05
70302;BME280;57706;56.326;43.882;2023-03-26T18:05:03;99096.22;;;10.42;72.86
70302;BME280;57706;56.326;43.882;2023-03-26T18:07:49;99086.06;;;10.39;72.81
70302;BME280;57706;56.326;43.882;2023-03-26T18:13:35;99091.88;;;10.63;71.77
70302;BME280;57706;56.326;43.882;2023-03-26T18:16:30;99088.38;;;10.49;72.40
70302;BME280;57706;56.326;43.882;2023-03-26T18:19:01;99081.19;;;10.36;72.77
70302;BME280;57706;56.326;43.882;2023-03-26T18:21:38;99087.97;;;10.24;73.64
70302;BME280;57706;56.326;43.882;2023-03-26T18:24:07;99086.81;;;10.33;73.08
70302;BME280;57706;56.326;43.882;2023-03-26T18:26:41;99090.03;;;10.28;73.58
70302;BME280;57706;56.326;43.882;2023-03-26T18:29:22;99086.38;;;10.23;73.58
70302;BME280;57706;56.326;43.882;2023-03-26T18:32:01;99094.22;;;10.44;72.95
70302;BME280;57706;56.326;43.882;2023-03-26T18:34:30;99088.34;;;10.42;72.90
70302;BME280;57706;56.326;43.882;2023-03-26T18:39:29;99084.34;;;10.25;73.62
70302;BME280;57706;56.326;43.882;2023-03-26T18:41:57;99098.06;;;10.49;72.54
70302;BME280;57706;56.326;43.882;2023-03-26T18:44:23;99093.75;;;10.41;72.83
70302;BME280;57706;56.326;43.882;2023-03-26T18:46:51;99087.63;;;10.27;73.34
70302;BME280;57706;56.326;43.882;2023-03-26T18:49:20;99092.66;;;10.00;74.46
70302;BME280;57706;56.326;43.882;2023-03-26T18:51:47;99090.28;;;10.05;74.27
70302;BME280;57706;56.326;43.882;2023-03-26T18:54:17;99098.13;;;9.98;74.61
70302;BME280;57706;56.326;43.882;2023-03-26T18:56:46;99085.91;;;10.12;74.16
70302;BME280;57706;56.326;43.882;2023-03-26T18:59:28;99095.31;;;9.78;75.28
70302;BME280;57706;56.326;43.882;2023-03-26T19:01:58;99085.44;;;10.02;74.29
70302;BME280;57706;56.326;43.882;2023-03-26T19:04:30;99088.56;;;9.90;74.15
70302;BME280;57706;56.326;43.882;2023-03-26T19:06:59;99091.44;;;9.96;73.41
70302;BME280;57706;56.326;43.882;2023-03-26T19:09:27;99092.28;;;10.03;72.63
70302;BME280;57706;56.326;43.882;2023-03-26T19:12:07;99095.28;;;10.00;72.58